createdAt,value
2016-09-08T00:00:52.850Z,1005.25
2016-09-08T00:01:53.133Z,1005.24
2016-09-08T00:02:53.104Z,1005.26
2016-09-08T00:03:53.144Z,1005.21
2016-09-08T00:04:53.288Z,1005.23
2016-09-08T00:05:52.913Z,1005.2
2016-09-08T00:06:52.970Z,1005.22
2016-09-08T00:07:53.185Z,1005.21
2016-09-08T00:08:53.166Z,1005.23
2016-09-08T00:09:53.119Z,1005.23
2016-09-08T00:10:53.921Z,1005.21
2016-09-08T00:11:55.106Z,1005.2
2016-09-08T00:12:53.006Z,1005.2
2016-09-08T00:13:53.013Z,1005.18
2016-09-08T00:14:53.104Z,1005.19
2016-09-08T00:15:54.207Z,1005.19
2016-09-08T00:16:53.341Z,1005.2
2016-09-08T00:17:52.970Z,1005.18
2016-09-08T00:18:53.503Z,1005.17
2016-09-08T00:19:53.302Z,1005.14
2016-09-08T00:20:53.263Z,1005.14
2016-09-08T00:21:53.159Z,1005.14
2016-09-08T00:22:53.270Z,1005.15
2016-09-08T00:23:53.411Z,1005.11
2016-09-08T00:24:53.233Z,1005.12
2016-09-08T00:25:53.500Z,1005.17
2016-09-08T00:26:53.848Z,1005.15
2016-09-08T00:27:53.948Z,1005.16
2016-09-08T00:28:53.557Z,1005.19
2016-09-08T00:29:54.900Z,1005.15
2016-09-08T00:30:53.339Z,1005.1
2016-09-08T00:31:53.435Z,1005.11
2016-09-08T00:32:53.943Z,1005.13
2016-09-08T00:33:53.873Z,1005.14
2016-09-08T00:34:53.881Z,1005.1
2016-09-08T00:35:55.262Z,1005.08
2016-09-08T00:36:54.939Z,1005.08
2016-09-08T00:37:54.472Z,1005.08
2016-09-08T00:38:53.456Z,1005.11
2016-09-08T00:39:53.761Z,1005.04
2016-09-08T00:40:54.570Z,1005.03
2016-09-08T00:41:54.365Z,1005.03
2016-09-08T00:42:54.320Z,1005.02
2016-09-08T00:43:54.671Z,1005.02
2016-09-08T00:44:54.376Z,1005.02
2016-09-08T00:45:54.676Z,1004.95
2016-09-08T00:46:54.483Z,1004.98
2016-09-08T00:47:54.769Z,1004.95
2016-09-08T00:48:54.395Z,1004.91
2016-09-08T00:49:55.120Z,1004.97
2016-09-08T00:50:54.543Z,1004.99
2016-09-08T00:51:55.570Z,1004.99
2016-09-08T00:52:54.348Z,1004.98
2016-09-08T00:53:54.912Z,1004.95
2016-09-08T00:54:54.243Z,1004.92
2016-09-08T00:55:54.689Z,1004.88
2016-09-08T00:56:54.098Z,1004.88
2016-09-08T00:57:54.494Z,1004.85
2016-09-08T00:58:54.982Z,1004.83
2016-09-08T00:59:54.353Z,1004.83
2016-09-08T01:00:54.455Z,1004.77
2016-09-08T01:01:54.436Z,1004.79
2016-09-08T01:02:54.537Z,1004.75
2016-09-08T01:03:54.597Z,1004.72
2016-09-08T01:04:54.339Z,1004.77
2016-09-08T01:05:54.772Z,1004.7
2016-09-08T01:06:54.083Z,1004.72
2016-09-08T01:07:54.578Z,1004.69
2016-09-08T01:08:54.581Z,1004.75
2016-09-08T01:09:54.932Z,1004.68
2016-09-08T01:10:54.385Z,1004.69
2016-09-08T01:11:54.500Z,1004.67
2016-09-08T01:12:54.862Z,1004.66
2016-09-08T01:13:54.775Z,1004.68
2016-09-08T01:14:54.390Z,1004.64
2016-09-08T01:15:54.709Z,1004.67
2016-09-08T01:16:54.456Z,1004.66
2016-09-08T01:17:54.648Z,1004.72
2016-09-08T01:18:54.601Z,1004.65
2016-09-08T01:19:54.657Z,1004.65
2016-09-08T01:20:54.961Z,1004.68
2016-09-08T01:21:54.828Z,1004.69
2016-09-08T01:22:54.414Z,1004.65
2016-09-08T01:23:54.741Z,1004.69
2016-09-08T01:24:54.711Z,1004.68
2016-09-08T01:25:54.879Z,1004.69
2016-09-08T01:26:54.473Z,1004.67
2016-09-08T01:27:56.290Z,1004.63
2016-09-08T01:28:54.747Z,1004.66
2016-09-08T01:29:55.426Z,1004.64
2016-09-08T01:30:55.648Z,1004.68
2016-09-08T01:31:54.889Z,1004.64
2016-09-08T01:32:55.245Z,1004.68
2016-09-08T01:33:54.873Z,1004.64
2016-09-08T01:34:55.304Z,1004.63
2016-09-08T01:35:55.340Z,1004.63
2016-09-08T01:36:55.304Z,1004.64
2016-09-08T01:37:55.322Z,1004.64
2016-09-08T01:38:55.049Z,1004.62
2016-09-08T01:39:55.394Z,1004.59
2016-09-08T01:40:55.194Z,1004.62
2016-09-08T01:41:54.902Z,1004.65
2016-09-08T01:42:55.463Z,1004.57
2016-09-08T01:43:55.271Z,1004.55
2016-09-08T01:44:55.534Z,1004.56
2016-09-08T01:45:55.119Z,1004.56
2016-09-08T01:46:55.194Z,1004.57
2016-09-08T01:47:55.018Z,1004.54
2016-09-08T01:48:55.425Z,1004.52
2016-09-08T01:49:55.701Z,1004.52
2016-09-08T01:50:55.495Z,1004.48
2016-09-08T01:51:56.083Z,1004.49
2016-09-08T01:52:55.254Z,1004.48
2016-09-08T01:53:55.706Z,1004.5
2016-09-08T01:54:55.143Z,1004.42
2016-09-08T01:55:55.670Z,1004.47
2016-09-08T01:56:55.637Z,1004.41
2016-09-08T01:57:55.911Z,1004.47
2016-09-08T01:58:55.810Z,1004.42
2016-09-08T01:59:55.733Z,1004.43
2016-09-08T02:00:56.497Z,1004.41
2016-09-08T02:01:55.838Z,1004.39
2016-09-08T02:02:55.871Z,1004.41
2016-09-08T02:03:56.348Z,1004.35
2016-09-08T02:04:56.088Z,1004.34
2016-09-08T02:05:56.728Z,1004.35
2016-09-08T02:06:55.878Z,1004.34
2016-09-08T02:07:55.725Z,1004.37
2016-09-08T02:08:55.419Z,1004.3
2016-09-08T02:09:55.751Z,1004.28
2016-09-08T02:10:55.960Z,1004.27
2016-09-08T02:11:56.075Z,1004.29
2016-09-08T02:12:55.739Z,1004.28
2016-09-08T02:13:55.714Z,1004.28
2016-09-08T02:14:55.897Z,1004.24
2016-09-08T02:15:55.938Z,1004.29
2016-09-08T02:16:56.118Z,1004.25
2016-09-08T02:17:55.971Z,1004.26
2016-09-08T02:18:55.909Z,1004.25
2016-09-08T02:19:56.114Z,1004.23
2016-09-08T02:20:56.467Z,1004.23
2016-09-08T02:21:56.460Z,1004.19
2016-09-08T02:22:55.976Z,1004.25
2016-09-08T02:23:56.158Z,1004.22
2016-09-08T02:24:56.218Z,1004.2
2016-09-08T02:25:55.893Z,1004.22
2016-09-08T02:26:55.943Z,1004.17
2016-09-08T02:27:56.986Z,1004.15
2016-09-08T02:28:56.306Z,1004.16
2016-09-08T02:29:56.589Z,1004.14
2016-09-08T02:30:56.678Z,1004.14
2016-09-08T02:31:56.445Z,1004.1
2016-09-08T02:32:56.306Z,1004.07
2016-09-08T02:33:56.506Z,1004.06
2016-09-08T02:34:56.756Z,1004.07
2016-09-08T02:35:56.343Z,1004.02
2016-09-08T02:36:56.150Z,1004.01
2016-09-08T02:37:56.172Z,1004.02
2016-09-08T02:38:56.366Z,1004.03
2016-09-08T02:39:56.249Z,1004.04
2016-09-08T02:40:56.493Z,1004
2016-09-08T02:41:56.738Z,1004
2016-09-08T02:42:56.680Z,1004
2016-09-08T02:43:56.609Z,1003.97
2016-09-08T02:44:56.539Z,1003.97
2016-09-08T02:45:56.664Z,1003.95
2016-09-08T02:46:56.390Z,1003.9
2016-09-08T02:47:56.792Z,1003.91
2016-09-08T02:48:56.765Z,1003.92
2016-09-08T02:49:56.422Z,1003.87
2016-09-08T02:50:56.619Z,1003.87
2016-09-08T02:51:56.291Z,1003.83
2016-09-08T02:52:56.349Z,1003.82
2016-09-08T02:53:57.009Z,1003.78
2016-09-08T02:54:57.101Z,1003.81
2016-09-08T02:55:56.849Z,1003.73
2016-09-08T02:56:57.282Z,1003.78
2016-09-08T02:57:56.579Z,1003.76
2016-09-08T02:58:56.892Z,1003.78
2016-09-08T02:59:56.741Z,1003.75
2016-09-08T03:00:56.713Z,1003.73
2016-09-08T03:01:57.660Z,1003.71
2016-09-08T03:02:56.954Z,1003.68
2016-09-08T03:03:57.541Z,1003.68
2016-09-08T03:04:57.382Z,1003.66
2016-09-08T03:05:57.050Z,1003.64
2016-09-08T03:06:57.395Z,1003.62
2016-09-08T03:07:57.173Z,1003.59
2016-09-08T03:08:56.944Z,1003.59
2016-09-08T03:09:57.346Z,1003.53
2016-09-08T03:10:57.004Z,1003.53
2016-09-08T03:11:58.463Z,1003.51
2016-09-08T03:12:57.241Z,1003.5
2016-09-08T03:13:56.795Z,1003.52
2016-09-08T03:14:57.410Z,1003.45
2016-09-08T03:15:57.262Z,1003.46
2016-09-08T03:16:56.860Z,1003.45
2016-09-08T03:17:57.391Z,1003.43
2016-09-08T03:18:57.277Z,1003.42
2016-09-08T03:19:57.539Z,1003.44
2016-09-08T03:20:57.637Z,1003.42
2016-09-08T03:21:57.970Z,1003.41
2016-09-08T03:22:57.145Z,1003.41
2016-09-08T03:23:57.627Z,1003.42
2016-09-08T03:24:57.965Z,1003.43
2016-09-08T03:25:58.792Z,1003.43
2016-09-08T03:26:57.220Z,1003.41
2016-09-08T03:27:57.787Z,1003.39
2016-09-08T03:28:57.510Z,1003.42
2016-09-08T03:29:57.548Z,1003.37
2016-09-08T03:30:57.190Z,1003.34
2016-09-08T03:31:58.085Z,1003.32
2016-09-08T03:32:57.762Z,1003.29
2016-09-08T03:33:57.540Z,1003.28
2016-09-08T03:34:57.544Z,1003.27
2016-09-08T03:35:57.542Z,1003.27
2016-09-08T03:36:58.127Z,1003.27
2016-09-08T03:37:57.506Z,1003.27
2016-09-08T03:38:58.057Z,1003.21
2016-09-08T03:39:57.443Z,1003.24
2016-09-08T03:40:57.915Z,1003.19
2016-09-08T03:41:57.563Z,1003.16
2016-09-08T03:42:57.675Z,1003.18
2016-09-08T03:43:57.991Z,1003.15
2016-09-08T03:44:57.928Z,1003.15
2016-09-08T03:45:57.767Z,1003.15
2016-09-08T03:46:59.059Z,1003.14
2016-09-08T03:47:57.531Z,1003.11
2016-09-08T03:48:57.610Z,1003.13
2016-09-08T03:49:58.010Z,1003.11
2016-09-08T03:50:58.818Z,1003.08
2016-09-08T03:51:57.949Z,1003.11
2016-09-08T03:52:58.067Z,1003.11
2016-09-08T03:53:57.831Z,1003.08
2016-09-08T03:54:57.925Z,1003.09
2016-09-08T03:55:57.930Z,1003.09
2016-09-08T03:56:57.929Z,1003.04
2016-09-08T03:57:58.180Z,1003.04
2016-09-08T03:58:57.980Z,1003.06
2016-09-08T03:59:58.074Z,1003.01
2016-09-08T04:00:58.031Z,1002.99
2016-09-08T04:01:58.299Z,1003
2016-09-08T04:02:58.373Z,1002.98
2016-09-08T04:03:58.247Z,1002.96
2016-09-08T04:04:57.869Z,1002.93
2016-09-08T04:05:58.235Z,1002.9
2016-09-08T04:06:57.972Z,1002.95
2016-09-08T04:07:58.386Z,1002.93
2016-09-08T04:08:58.321Z,1002.92
2016-09-08T04:09:57.949Z,1002.94
2016-09-08T04:10:58.881Z,1002.93
2016-09-08T04:11:58.375Z,1002.91
2016-09-08T04:12:58.859Z,1002.91
2016-09-08T04:13:58.552Z,1002.94
2016-09-08T04:14:58.869Z,1002.91
2016-09-08T04:15:57.950Z,1002.89
2016-09-08T04:16:58.155Z,1002.89
2016-09-08T04:17:58.435Z,1002.91
2016-09-08T04:18:58.519Z,1002.86
2016-09-08T04:19:59.198Z,1002.86
2016-09-08T04:20:58.903Z,1002.84
2016-09-08T04:21:58.387Z,1002.82
2016-09-08T04:22:59.164Z,1002.83
2016-09-08T04:23:58.825Z,1002.81
2016-09-08T04:24:59.001Z,1002.81
2016-09-08T04:25:58.832Z,1002.83
2016-09-08T04:26:59.016Z,1002.8
2016-09-08T04:27:58.443Z,1002.81
2016-09-08T04:28:59.365Z,1002.8
2016-09-08T04:29:59.476Z,1002.81
2016-09-08T04:30:58.578Z,1002.8
2016-09-08T04:31:58.971Z,1002.79
2016-09-08T04:32:59.121Z,1002.77
2016-09-08T04:33:59.029Z,1002.79
2016-09-08T04:34:59.432Z,1002.81
2016-09-08T04:35:59.311Z,1002.78
2016-09-08T04:36:59.068Z,1002.78
2016-09-08T04:37:59.221Z,1002.79
2016-09-08T04:38:59.116Z,1002.82
2016-09-08T04:39:58.793Z,1002.8
2016-09-08T04:40:59.199Z,1002.8
2016-09-08T04:41:59.845Z,1002.79
2016-09-08T04:42:59.074Z,1002.78
2016-09-08T04:43:59.017Z,1002.78
2016-09-08T04:44:59.358Z,1002.8
2016-09-08T04:45:59.945Z,1002.8
2016-09-08T04:46:59.419Z,1002.81
2016-09-08T04:47:59.000Z,1002.79
2016-09-08T04:48:59.325Z,1002.85
2016-09-08T04:49:59.192Z,1002.84
2016-09-08T04:51:00.094Z,1002.84
2016-09-08T04:51:59.342Z,1002.83
2016-09-08T04:52:59.363Z,1002.87
2016-09-08T04:54:00.149Z,1002.83
2016-09-08T04:54:59.331Z,1002.88
2016-09-08T04:56:00.342Z,1002.89
2016-09-08T04:56:59.260Z,1002.92
2016-09-08T04:57:59.311Z,1002.91
2016-09-08T04:58:59.294Z,1002.9
2016-09-08T04:59:59.486Z,1002.88
2016-09-08T05:00:59.354Z,1002.93
2016-09-08T05:01:59.685Z,1002.91
2016-09-08T05:02:59.662Z,1002.94
2016-09-08T05:03:59.771Z,1002.94
2016-09-08T05:04:59.648Z,1002.94
2016-09-08T05:06:00.170Z,1002.92
2016-09-08T05:06:59.376Z,1002.92
2016-09-08T05:07:59.577Z,1002.96
2016-09-08T05:08:59.428Z,1002.94
2016-09-08T05:09:59.994Z,1002.98
2016-09-08T05:10:59.726Z,1003.01
2016-09-08T05:11:59.802Z,1002.99
2016-09-08T05:13:00.122Z,1002.97
2016-09-08T05:13:59.562Z,1002.98
2016-09-08T05:14:59.668Z,1003.04
2016-09-08T05:15:59.792Z,1003.04
2016-09-08T05:17:00.026Z,1003.08
2016-09-08T05:17:59.963Z,1003.08
2016-09-08T05:18:59.711Z,1003.07
2016-09-08T05:19:59.666Z,1003.11
2016-09-08T05:20:59.679Z,1003.09
2016-09-08T05:21:59.511Z,1003.12
2016-09-08T05:23:00.340Z,1003.14
2016-09-08T05:23:59.746Z,1003.14
2016-09-08T05:24:59.613Z,1003.11
2016-09-08T05:26:00.123Z,1003.11
2016-09-08T05:26:59.789Z,1003.07
2016-09-08T05:27:59.990Z,1003.08
2016-09-08T05:29:00.198Z,1003.1
2016-09-08T05:30:00.552Z,1003.12
2016-09-08T05:31:00.017Z,1003.09
2016-09-08T05:32:00.923Z,1003.14
2016-09-08T05:32:59.892Z,1003.14
2016-09-08T05:33:59.825Z,1003.15
2016-09-08T05:35:00.558Z,1003.21
2016-09-08T05:36:00.041Z,1003.21
2016-09-08T05:37:00.086Z,1003.25
2016-09-08T05:37:59.951Z,1003.27
2016-09-08T05:39:00.100Z,1003.29
2016-09-08T05:40:00.080Z,1003.26
2016-09-08T05:41:01.369Z,1003.3
2016-09-08T05:42:00.136Z,1003.34
2016-09-08T05:43:00.057Z,1003.33
2016-09-08T05:44:00.485Z,1003.31
2016-09-08T05:45:00.644Z,1003.36
2016-09-08T05:45:59.944Z,1003.34
2016-09-08T05:47:00.474Z,1003.38
2016-09-08T05:48:01.478Z,1003.38
2016-09-08T05:49:00.346Z,1003.38
2016-09-08T05:50:01.339Z,1003.39
2016-09-08T05:51:00.578Z,1003.4
2016-09-08T05:52:00.343Z,1003.37
2016-09-08T05:53:00.530Z,1003.41
2016-09-08T05:54:01.146Z,1003.36
2016-09-08T05:55:00.710Z,1003.37
2016-09-08T05:56:00.479Z,1003.33
2016-09-08T05:57:01.187Z,1003.37
2016-09-08T05:58:00.872Z,1003.32
2016-09-08T05:59:00.466Z,1003.31
2016-09-08T06:00:00.623Z,1003.33
2016-09-08T06:01:00.874Z,1003.28
2016-09-08T06:02:00.989Z,1003.29
2016-09-08T06:03:00.411Z,1003.25
2016-09-08T06:04:00.405Z,1003.25
2016-09-08T06:05:00.373Z,1003.24
2016-09-08T06:06:01.046Z,1003.18
2016-09-08T06:07:00.626Z,1003.22
2016-09-08T06:08:01.316Z,1003.19
2016-09-08T06:09:01.167Z,1003.21
2016-09-08T06:10:00.967Z,1003.19
2016-09-08T06:11:00.480Z,1003.24
2016-09-08T06:12:00.536Z,1003.27
2016-09-08T06:13:01.122Z,1003.28
2016-09-08T06:14:01.025Z,1003.31
2016-09-08T06:15:01.299Z,1003.33
2016-09-08T06:16:00.984Z,1003.3
2016-09-08T06:17:00.978Z,1003.35
2016-09-08T06:18:01.111Z,1003.33
2016-09-08T06:19:00.936Z,1003.31
2016-09-08T06:20:00.909Z,1003.33
2016-09-08T06:21:01.398Z,1003.35
2016-09-08T06:22:01.110Z,1003.3
2016-09-08T06:23:01.851Z,1003.32
2016-09-08T06:24:01.021Z,1003.37
2016-09-08T06:25:01.096Z,1003.39
2016-09-08T06:26:01.150Z,1003.45
2016-09-08T06:27:01.417Z,1003.46
2016-09-08T06:28:01.310Z,1003.45
2016-09-08T06:29:01.005Z,1003.5
2016-09-08T06:30:01.803Z,1003.48
2016-09-08T06:31:01.241Z,1003.51
2016-09-08T06:32:01.232Z,1003.52
2016-09-08T06:33:01.216Z,1003.55
2016-09-08T06:34:01.173Z,1003.53
2016-09-08T06:35:01.900Z,1003.51
2016-09-08T06:36:00.972Z,1003.46
2016-09-08T06:37:01.359Z,1003.5
2016-09-08T06:38:01.758Z,1003.45
2016-09-08T06:39:01.316Z,1003.47
2016-09-08T06:40:01.570Z,1003.47
2016-09-08T06:41:01.393Z,1003.44
2016-09-08T06:42:02.194Z,1003.45
2016-09-08T06:43:01.822Z,1003.45
2016-09-08T06:44:01.991Z,1003.44
2016-09-08T06:45:01.473Z,1003.36
2016-09-08T06:46:01.623Z,1003.38
2016-09-08T06:47:01.793Z,1003.38
2016-09-08T06:48:02.755Z,1003.37
2016-09-08T06:49:02.340Z,1003.42
2016-09-08T06:50:02.513Z,1003.4
2016-09-08T06:51:01.796Z,1003.39
2016-09-08T06:52:01.782Z,1003.39
2016-09-08T06:53:01.813Z,1003.39
2016-09-08T06:54:02.158Z,1003.42
2016-09-08T06:55:01.474Z,1003.4
2016-09-08T06:56:02.120Z,1003.43
2016-09-08T06:57:02.487Z,1003.46
2016-09-08T06:58:02.332Z,1003.48
2016-09-08T06:59:02.143Z,1003.51
2016-09-08T07:00:02.033Z,1003.5
2016-09-08T07:01:02.026Z,1003.49
2016-09-08T07:02:02.605Z,1003.49
2016-09-08T07:03:01.836Z,1003.5
2016-09-08T07:04:02.301Z,1003.5
2016-09-08T07:05:02.063Z,1003.52
2016-09-08T07:06:01.936Z,1003.51
2016-09-08T07:07:02.168Z,1003.56
2016-09-08T07:08:02.756Z,1003.53
2016-09-08T07:09:02.443Z,1003.54
2016-09-08T07:10:02.889Z,1003.51
2016-09-08T07:11:03.504Z,1003.53
2016-09-08T07:12:02.297Z,1003.51
2016-09-08T07:13:02.454Z,1003.53
2016-09-08T07:14:02.606Z,1003.53
2016-09-08T07:15:02.041Z,1003.5
2016-09-08T07:16:02.394Z,1003.5
2016-09-08T07:17:02.976Z,1003.59
2016-09-08T07:18:02.407Z,1003.57
2016-09-08T07:19:02.186Z,1003.6
2016-09-08T07:20:02.873Z,1003.64
2016-09-08T07:21:02.172Z,1003.63
2016-09-08T07:22:02.594Z,1003.67
2016-09-08T07:23:02.172Z,1003.69
2016-09-08T07:24:02.188Z,1003.68
2016-09-08T07:25:02.365Z,1003.63
2016-09-08T07:26:02.676Z,1003.65
2016-09-08T07:27:02.438Z,1003.63
2016-09-08T07:28:02.859Z,1003.61
2016-09-08T07:29:02.862Z,1003.55
2016-09-08T07:30:03.381Z,1003.53
2016-09-08T07:31:02.603Z,1003.45
2016-09-08T07:32:02.964Z,1003.45
2016-09-08T07:33:02.438Z,1003.44
2016-09-08T07:34:02.604Z,1003.53
2016-09-08T07:35:02.545Z,1003.57
2016-09-08T07:36:02.846Z,1003.56
2016-09-08T07:37:02.955Z,1003.5
2016-09-08T07:38:02.813Z,1003.47
2016-09-08T07:39:02.941Z,1003.46
2016-09-08T07:40:02.747Z,1003.44
2016-09-08T07:41:03.024Z,1003.41
2016-09-08T07:42:02.568Z,1003.35
2016-09-08T07:43:03.143Z,1003.34
2016-09-08T07:44:02.905Z,1003.3
2016-09-08T07:45:02.618Z,1003.3
2016-09-08T07:46:03.232Z,1003.28
2016-09-08T07:47:02.777Z,1003.28
2016-09-08T07:48:02.767Z,1003.27
2016-09-08T07:49:02.916Z,1003.26
2016-09-08T07:50:03.178Z,1003.25
2016-09-08T07:51:02.945Z,1003.23
2016-09-08T07:52:02.939Z,1003.24
2016-09-08T07:53:03.175Z,1003.25
2016-09-08T07:54:03.578Z,1003.22
2016-09-08T07:55:03.215Z,1003.23
2016-09-08T07:56:03.397Z,1003.24
2016-09-08T07:57:03.188Z,1003.22
2016-09-08T07:58:03.188Z,1003.19
2016-09-08T07:59:03.146Z,1003.17
2016-09-08T08:00:03.433Z,1003.18
2016-09-08T08:01:03.953Z,1003.18
2016-09-08T08:02:03.306Z,1003.2
2016-09-08T08:03:03.183Z,1003.17
2016-09-08T08:04:03.335Z,1003.19
2016-09-08T08:05:03.351Z,1003.14
2016-09-08T08:06:03.312Z,1003.14
2016-09-08T08:07:03.644Z,1003.14
2016-09-08T08:08:03.421Z,1003.14
2016-09-08T08:09:03.845Z,1003.19
2016-09-08T08:10:03.615Z,1003.18
2016-09-08T08:11:03.614Z,1003.18
2016-09-08T08:12:04.464Z,1003.18
2016-09-08T08:13:03.354Z,1003.15
2016-09-08T08:14:03.448Z,1003.11
2016-09-08T08:15:03.909Z,1003.12
2016-09-08T08:16:04.171Z,1003.1
2016-09-08T08:17:03.933Z,1003.07
2016-09-08T08:18:04.477Z,1003.06
2016-09-08T08:19:03.909Z,1003.04
2016-09-08T08:20:03.731Z,1003.04
2016-09-08T08:21:04.212Z,1002.99
2016-09-08T08:22:03.897Z,1003.01
2016-09-08T08:23:04.414Z,1003.05
2016-09-08T08:24:04.469Z,1003.09
2016-09-08T08:25:03.879Z,1003.07
2016-09-08T08:26:04.284Z,1003.03
2016-09-08T08:27:04.060Z,1003.06
2016-09-08T08:28:04.392Z,1003.09
2016-09-08T08:29:04.121Z,1003.06
2016-09-08T08:30:04.550Z,1003.06
2016-09-08T08:31:04.518Z,1002.99
2016-09-08T08:32:04.240Z,1003.03
2016-09-08T08:33:04.564Z,1003.04
2016-09-08T08:34:04.975Z,1002.97
2016-09-08T08:35:04.600Z,1002.96
2016-09-08T08:36:04.445Z,1002.98
2016-09-08T08:37:04.130Z,1002.96
2016-09-08T08:38:04.503Z,1002.95
2016-09-08T08:39:05.207Z,1003
2016-09-08T08:40:05.003Z,1002.98
2016-09-08T08:41:04.514Z,1002.94
2016-09-08T08:42:05.593Z,1002.96
2016-09-08T08:43:04.796Z,1002.98
2016-09-08T08:44:05.077Z,1002.91
2016-09-08T08:45:04.473Z,1002.95
2016-09-08T08:46:04.894Z,1002.91
2016-09-08T08:47:05.424Z,1002.9
2016-09-08T08:48:04.571Z,1002.82
2016-09-08T08:49:05.210Z,1002.82
2016-09-08T08:50:05.019Z,1002.81
2016-09-08T08:51:04.759Z,1002.79
2016-09-08T08:52:04.531Z,1002.82
2016-09-08T08:53:04.575Z,1002.82
2016-09-08T08:54:05.016Z,1002.81
2016-09-08T08:55:04.982Z,1002.81
2016-09-08T08:56:05.091Z,1002.81
2016-09-08T08:57:04.971Z,1002.75
2016-09-08T08:58:04.885Z,1002.83
2016-09-08T08:59:05.241Z,1002.8
2016-09-08T09:00:04.770Z,1002.71
2016-09-08T09:01:05.207Z,1002.75
2016-09-08T09:02:05.050Z,1002.7
2016-09-08T09:03:04.898Z,1002.78
2016-09-08T09:04:05.169Z,1002.76
2016-09-08T09:05:05.612Z,1002.74
2016-09-08T09:06:05.310Z,1002.71
2016-09-08T09:07:05.258Z,1002.68
2016-09-08T09:08:05.164Z,1002.64
2016-09-08T09:09:05.047Z,1002.67
2016-09-08T09:10:05.385Z,1002.6
2016-09-08T09:11:05.601Z,1002.66
2016-09-08T09:12:05.209Z,1002.58
2016-09-08T09:13:05.941Z,1002.63
2016-09-08T09:14:05.140Z,1002.57
2016-09-08T09:15:05.453Z,1002.62
2016-09-08T09:16:05.524Z,1002.57
2016-09-08T09:17:05.589Z,1002.6
2016-09-08T09:18:05.475Z,1002.54
2016-09-08T09:19:05.715Z,1002.51
2016-09-08T09:20:05.647Z,1002.53
2016-09-08T09:21:05.895Z,1002.51
2016-09-08T09:22:05.474Z,1002.53
2016-09-08T09:23:05.519Z,1002.54
2016-09-08T09:24:05.892Z,1002.49
2016-09-08T09:25:05.699Z,1002.39
2016-09-08T09:26:05.440Z,1002.39
2016-09-08T09:27:05.864Z,1002.41
2016-09-08T09:28:06.335Z,1002.41
2016-09-08T09:29:05.743Z,1002.4
2016-09-08T09:30:06.249Z,1002.42
2016-09-08T09:31:06.218Z,1002.45
2016-09-08T09:32:06.155Z,1002.4
2016-09-08T09:33:05.947Z,1002.37
2016-09-08T09:34:06.251Z,1002.32
2016-09-08T09:35:06.137Z,1002.36
2016-09-08T09:36:06.218Z,1002.34
2016-09-08T09:37:06.173Z,1002.33
2016-09-08T09:38:06.497Z,1002.33
2016-09-08T09:39:06.305Z,1002.38
2016-09-08T09:40:06.706Z,1002.37
2016-09-08T09:41:06.191Z,1002.39
2016-09-08T09:42:06.343Z,1002.35
2016-09-08T09:43:06.413Z,1002.4
2016-09-08T09:44:06.075Z,1002.4
2016-09-08T09:45:06.260Z,1002.36
2016-09-08T09:46:07.115Z,1002.38
2016-09-08T09:47:06.873Z,1002.37
2016-09-08T09:48:06.505Z,1002.4
2016-09-08T09:49:06.790Z,1002.36
2016-09-08T09:50:06.732Z,1002.41
2016-09-08T09:51:07.010Z,1002.4
2016-09-08T09:52:06.695Z,1002.4
2016-09-08T09:53:06.935Z,1002.34
2016-09-08T09:54:06.802Z,1002.3
2016-09-08T09:55:06.828Z,1002.29
2016-09-08T09:56:07.091Z,1002.25
2016-09-08T09:57:06.977Z,1002.26
2016-09-08T09:58:07.137Z,1002.24
2016-09-08T09:59:07.641Z,1002.17
2016-09-08T10:00:08.309Z,1002.12
2016-09-08T10:01:06.662Z,1002.15
2016-09-08T10:02:08.097Z,1002.14
2016-09-08T10:03:07.423Z,1002.12
2016-09-08T10:04:06.903Z,1002.1
2016-09-08T10:05:07.038Z,1002.07
2016-09-08T10:06:07.355Z,1001.94
2016-09-08T10:07:07.225Z,1001.94
2016-09-08T10:08:07.357Z,1001.92
2016-09-08T10:09:07.174Z,1001.91
2016-09-08T10:10:07.237Z,1001.85
2016-09-08T10:11:07.456Z,1001.85
2016-09-08T10:12:07.123Z,1001.79
2016-09-08T10:13:07.495Z,1001.81
2016-09-08T10:14:07.694Z,1001.74
2016-09-08T10:15:07.225Z,1001.7
2016-09-08T10:16:07.490Z,1001.62
2016-09-08T10:17:07.518Z,1001.58
2016-09-08T10:18:07.333Z,1001.5
2016-09-08T10:19:07.293Z,1001.38
2016-09-08T10:20:07.602Z,1001.4
2016-09-08T10:21:08.022Z,1001.36
2016-09-08T10:22:07.850Z,1001.27
2016-09-08T10:23:07.863Z,1001.3
2016-09-08T10:24:07.823Z,1001.27
2016-09-08T10:25:07.727Z,1001.23
2016-09-08T10:26:08.087Z,1001.25
2016-09-08T10:27:07.777Z,1001.29
2016-09-08T10:28:07.782Z,1001.26
2016-09-08T10:29:08.787Z,1001.24
2016-09-08T10:30:07.702Z,1001.32
2016-09-08T10:31:07.967Z,1001.23
2016-09-08T10:32:07.849Z,1001.26
2016-09-08T10:33:07.849Z,1001.16
2016-09-08T10:34:08.476Z,1001.16
2016-09-08T10:35:08.559Z,1001.13
2016-09-08T10:36:08.878Z,1001.06
2016-09-08T10:37:08.338Z,1001.07
2016-09-08T10:38:07.886Z,1001
2016-09-08T10:39:08.331Z,1001
2016-09-08T10:40:08.564Z,1001
2016-09-08T10:41:08.058Z,1001
2016-09-08T10:42:08.485Z,1000.97
2016-09-08T10:43:08.869Z,1001
2016-09-08T10:44:08.827Z,1001.03
2016-09-08T10:45:08.326Z,1001.05
2016-09-08T10:46:08.506Z,1001.08
2016-09-08T10:47:08.615Z,1001.04
2016-09-08T10:48:08.453Z,1001.05
2016-09-08T10:49:08.590Z,1001.02
2016-09-08T10:50:08.776Z,1001.03
2016-09-08T10:51:08.703Z,1001.02
2016-09-08T10:52:09.092Z,1001.05
2016-09-08T10:53:08.700Z,1001.1
2016-09-08T10:54:08.928Z,1001.09
2016-09-08T10:55:09.354Z,1001.13
2016-09-08T10:56:08.711Z,1001.13
2016-09-08T10:57:09.396Z,1001.14
2016-09-08T10:58:08.983Z,1001.1
2016-09-08T10:59:09.101Z,1001.12
2016-09-08T11:00:08.683Z,1001.13
2016-09-08T11:01:08.900Z,1001.11
2016-09-08T11:02:09.161Z,1001.12
2016-09-08T11:03:08.988Z,1001.12
2016-09-08T11:04:09.179Z,1001.13
2016-09-08T11:05:09.082Z,1001.14
2016-09-08T11:06:09.067Z,1001.11
2016-09-08T11:07:09.303Z,1001.1
2016-09-08T11:08:09.209Z,1001.08
2016-09-08T11:09:09.074Z,1001.06
2016-09-08T11:10:09.212Z,1001.07
2016-09-08T11:11:09.080Z,1001.07
2016-09-08T11:12:10.231Z,1001.08
2016-09-08T11:13:09.142Z,1001.09
2016-09-08T11:14:09.568Z,1001.15
2016-09-08T11:15:09.718Z,1001.23
2016-09-08T11:16:09.368Z,1001.27
2016-09-08T11:17:09.871Z,1001.29
2016-09-08T11:18:09.669Z,1001.28
2016-09-08T11:19:09.568Z,1001.27
2016-09-08T11:20:10.330Z,1001.27
2016-09-08T11:21:09.534Z,1001.31
2016-09-08T11:22:10.017Z,1001.29
2016-09-08T11:23:09.523Z,1001.29
2016-09-08T11:24:10.202Z,1001.3
2016-09-08T11:25:09.746Z,1001.22
2016-09-08T11:26:09.910Z,1001.25
2016-09-08T11:27:09.904Z,1001.26
2016-09-08T11:28:09.970Z,1001.24
2016-09-08T11:29:10.079Z,1001.32
2016-09-08T11:30:09.938Z,1001.28
2016-09-08T11:31:09.860Z,1001.23
2016-09-08T11:32:10.298Z,1001.25
2016-09-08T11:33:10.223Z,1001.22
2016-09-08T11:34:10.127Z,1001.2
2016-09-08T11:35:10.342Z,1001.2
2016-09-08T11:36:10.293Z,1001.22
2016-09-08T11:37:10.320Z,1001.19
2016-09-08T11:38:10.289Z,1001.18
2016-09-08T11:39:10.634Z,1001.25
2016-09-08T11:40:11.034Z,1001.16
2016-09-08T11:41:10.226Z,1001.15
2016-09-08T11:42:11.020Z,1001.15
2016-09-08T11:43:10.794Z,1001.1
2016-09-08T11:44:10.640Z,1001.12
2016-09-08T11:45:11.027Z,1001.16
2016-09-08T11:46:10.872Z,1001.17
2016-09-08T11:47:10.647Z,1001.14
2016-09-08T11:48:10.902Z,1001.16
2016-09-08T11:49:10.903Z,1001.15
2016-09-08T11:50:10.706Z,1001.18
2016-09-08T11:51:10.885Z,1001.15
2016-09-08T11:52:10.715Z,1001.16
2016-09-08T11:53:10.725Z,1001.14
2016-09-08T11:54:10.668Z,1001.15
2016-09-08T11:55:11.749Z,1001.17
2016-09-08T11:56:11.290Z,1001.16
2016-09-08T11:57:10.885Z,1001.21
2016-09-08T11:58:11.036Z,1001.19
2016-09-08T11:59:11.057Z,1001.18
2016-09-08T12:00:11.380Z,1001.17
2016-09-08T12:01:11.150Z,1001.1
2016-09-08T12:02:11.488Z,1001.03
2016-09-08T12:03:12.002Z,1001.07
2016-09-08T12:04:11.038Z,1001.13
2016-09-08T12:05:11.130Z,1001.04
2016-09-08T12:06:11.162Z,1001.04
2016-09-08T12:07:11.524Z,1001.07
2016-09-08T12:08:11.906Z,1001.03
2016-09-08T12:09:11.427Z,1001.02